createdAt,value
2022-10-28T06:15:37.142Z,4.91
2022-10-28T06:25:37.064Z,8.12
2022-10-28T06:35:37.024Z,9.74
2022-10-28T06:45:36.972Z,9.34
2022-10-28T06:55:38.547Z,7.72
2022-10-28T07:05:38.794Z,6.81
2022-10-28T07:15:38.680Z,5.63
2022-10-28T07:25:38.600Z,3.14
2022-10-28T07:35:38.629Z,3.39
2022-10-28T07:45:38.627Z,0.07
2022-10-28T07:55:38.667Z,0.84
2022-10-28T08:05:38.663Z,1.63
2022-10-28T08:15:38.556Z,9.19
2022-10-28T08:25:38.627Z,10.12
2022-10-28T08:35:38.689Z,3.77
2022-10-28T08:45:38.865Z,0.00
2022-10-28T08:55:39.036Z,0.00
2022-10-28T09:05:39.001Z,0.00
2022-10-28T09:25:39.058Z,0.00
2022-10-28T09:35:38.980Z,0.00
2022-10-28T09:45:39.070Z,0.00
2022-10-28T09:55:39.135Z,0.00
2022-10-28T10:05:38.970Z,0.00
2022-10-28T10:15:39.090Z,0.00
2022-10-28T10:25:39.079Z,0.00
2022-10-28T10:35:39.155Z,0.00
2022-10-28T10:45:39.161Z,0.00
2022-10-28T10:55:39.018Z,0.00
2022-10-28T11:05:39.193Z,0.00
2022-10-28T11:15:39.213Z,0.00
2022-10-28T11:25:39.302Z,0.00
2022-10-28T11:35:39.278Z,0.00
2022-10-28T11:45:39.154Z,0.00
2022-10-28T11:55:39.221Z,0.00
2022-10-28T12:05:39.252Z,0.00
2022-10-28T12:15:39.356Z,0.00
2022-10-28T12:25:39.203Z,0.00
2022-10-28T12:35:39.285Z,0.00
2022-10-28T12:45:39.237Z,0.00
2022-10-28T12:55:39.421Z,0.00
2022-10-28T13:05:39.298Z,0.00
2022-10-28T13:15:39.371Z,0.00
2022-10-28T13:25:39.184Z,0.00
2022-10-28T13:35:39.346Z,0.00
2022-10-28T13:45:39.356Z,0.00
2022-10-28T13:55:39.289Z,0.00
2022-10-28T14:05:39.426Z,0.00
2022-10-28T14:15:39.357Z,0.00
2022-10-28T14:25:39.338Z,0.00
2022-10-28T14:35:39.373Z,0.00
2022-10-28T14:45:39.439Z,0.00
2022-10-28T14:55:39.587Z,0.00
2022-10-28T15:05:39.678Z,0.00
2022-10-28T15:15:39.622Z,0.00
2022-10-28T15:25:39.668Z,3.90
2022-10-28T15:35:39.647Z,9.80
2022-10-28T15:45:42.496Z,9.19
2022-10-28T15:56:07.151Z,6.83
2022-10-28T16:05:39.752Z,5.98
2022-10-28T16:15:39.644Z,6.59
2022-10-28T16:25:39.710Z,4.73
2022-10-28T16:35:39.648Z,4.74
2022-10-28T16:45:39.697Z,3.93
2022-10-28T16:55:39.682Z,5.01
2022-10-28T17:05:39.508Z,4.98
2022-10-28T17:15:39.557Z,8.12
2022-10-28T17:35:39.703Z,9.18
2022-10-28T17:45:39.713Z,9.24
2022-10-28T17:55:39.780Z,8.08
2022-10-28T18:05:39.723Z,9.21
2022-10-28T18:15:39.718Z,8.90
2022-10-28T18:25:39.661Z,9.16
2022-10-28T18:35:39.733Z,8.38
2022-10-28T18:45:39.793Z,4.33
2022-10-28T18:55:39.716Z,4.76
2022-10-28T19:05:39.853Z,4.97
2022-10-28T19:15:39.989Z,5.05
